Webkamera Lisätietoa Webcam


Yksityisiä sääasemia lähellä:

Sääasema Orivesi

Sääasema Muurame

Sääasema Jyväskylä

Sääasema Vihtavuori


Löydät sääaseman tiedot myös:

Finland Weather Exchange

European Weather Network

Weather Underground

AWEKAS

Windy.com

HAMweather, WeatherForYou, PWS Weather



Säätiedot lähimmiltä METAR asemilta

   
EFHA - Halli (Fin-Afb), Finland
Etäisyys asemalta: Kaakko 25 km
Päivitetty: 19.04.2024 15:50
Pilvistä  
Pilvistä  
   Tuuli: Itäkoillinen 6.2 m/s
Tuuli: Itäkoillinen 6.2 m/s
Lämpötila: -2°C
Tuulen hyytävyys: -8°C
Kastepiste: -10°C
Kosteus: 55%
Ilmanpaine: 1007 hPa
Pilvisyys: Pilvistä
Näkyvyys: Enemmän kuin 10 km
Pilvitiedot: Pilvistä 945 m
EFHA 191250Z AUTO 06012KT 9999 OVC031 M02/M10 Q1007
EFJY - Jyvaskyla (Mil/Civ), Finland
Etäisyys asemalta: Koillinen 75 km
Päivitetty: 19.04.2024 15:50
Pilvistä  
Pilvistä  
   Tuuli: Pohjoiskoillinen 5.7 m/s
Tuuli: Pohjoiskoillinen 5.7 m/s
Lämpötila: -3°C
Tuulen hyytävyys: -9°C
Kastepiste: -10°C
Kosteus: 59%
Ilmanpaine: 1009 hPa
Pilvisyys: Pilvistä
Näkyvyys: Enemmän kuin 10 km
Pilvitiedot: Pilvistä 793 m
EFJY 191250Z AUTO 02011KT 350V060 9999 OVC026 M03/M10 Q1009
EFTP - Tampere/Pirkkala, Finland
Etäisyys asemalta: Lounas 81 km
Päivitetty: 19.04.2024 15:50
Pilvistä  
Pilvistä  
   Tuuli: Pohjoiskoillinen 4.1 m/s
Tuuli: Pohjoiskoillinen 4.1 m/s
Lämpötila: -1°C
Tuulen hyytävyys: -6°C
Kastepiste: -9°C
Kosteus: 55%
Ilmanpaine: 1007 hPa
Pilvisyys: Pilvistä
Näkyvyys: Enemmän kuin 10 km
Pilvitiedot: Pilvistä 975 m
EFTP 191250Z AUTO 03008KT 360V070 9999 OVC032 M01/M09 Q1007
EFSI - Seinajoki-Ilmajoki, Finland
Etäisyys asemalta: Luode 114 km
Päivitetty: 19.04.2024 15:50
Puolipilvistä  
Puolipilvistä  
   Tuuli: Koillinen 3.6 m/s
Tuuli: Koillinen 3.6 m/s
Lämpötila: 2°C
Tuulen hyytävyys: -2°C
Kastepiste: -9°C
Kosteus: 44%
Ilmanpaine: 1008 hPa
Pilvisyys: Puolipilvistä
Näkyvyys: Enemmän kuin 10 km
Pilvitiedot: Puolipilvistä 1280 m
EFSI 191250Z AUTO 04007KT 340V100 9999 SCT042 02/M09 Q1008
EFMI - Mikkeli, Finland
Etäisyys asemalta: Itäkaakko 147 km
Päivitetty: 19.04.2024 15:50
Pilvistä  
Pilvistä  
   Tuuli: Pohjoiskoillinen 3.6 m/s
Tuuli: Pohjoiskoillinen 3.6 m/s
Lämpötila: -3°C
Tuulen hyytävyys: -8°C
Kastepiste: -10°C
Kosteus: 59%
Ilmanpaine: 1007 hPa
Pilvisyys: Pilvistä
Näkyvyys: Enemmän kuin 10 km
Pilvitiedot: Pilvistä 914 m
EFMI 191250Z AUTO 02007KT 300V090 9999 OVC030 M03/M10 Q1007
EFPO - Pori (Mil/Civ), Finland
Etäisyys asemalta: Länsilounas 154 km
Päivitetty: 19.04.2024 15:50
Melkein pilvistä  
Melkein pilvistä  
   Tuuli: Pohjoinen 4.6 m/s
Tuuli: Pohjoinen 4.6 m/s
Lämpötila: 4°C
Tuulen hyytävyys: 0°C
Kastepiste: -9°C
Kosteus: 39%
Ilmanpaine: 1007 hPa
Pilvisyys: Melkein pilvistä
Näkyvyys: Enemmän kuin 10 km
Pilvitiedot: Melkein pilvistä 1494 m
EFPO 191250Z AUTO 01009KT 340V050 9999 BKN049 04/M09 Q1007
EFUT - Utti (Fin-Afb), Finland
Etäisyys asemalta: Kaakko 180 km
Päivitetty: 19.04.2024 15:50
Pilvistä  
Pilvistä  
   Tuuli: Koillinen 5.1 m/s
Tuuli: Koillinen 5.1 m/s
Lämpötila: -3°C
Tuulen hyytävyys: -9°C
Kastepiste: -9°C
Kosteus: 64%
Ilmanpaine: 1005 hPa
Pilvisyys: Pilvistä
Näkyvyys: Enemmän kuin 10 km
Pilvitiedot: Pilvistä 762 m
EFUT 191250Z AUTO 04010KT 010V090 9999 OVC025 M03/M09 Q1005
EFVA - Vaasa, Finland
Etäisyys asemalta: Luode 180 km
Päivitetty: 19.04.2024 15:50
Selkeää  
Selkeää  
   Tuuli: Pohjoinen 9.3 m/s
Tuuli: Pohjoinen 9.3 m/s
Lämpötila: 1°C
Tuulen hyytävyys: -6°C
Kastepiste: -8°C
Kosteus: 51%
Ilmanpaine: 1010 hPa
Näkyvyys: Enemmän kuin 10 km
Pilvitiedot: Selkeää
EFVA 191250Z AUTO 36018KT CAVOK 01/M08 Q1010
EFHK - Helsinki/Vantaa, Finland
Etäisyys asemalta: Etelä 191 km
Päivitetty: 19.04.2024 15:50
Melkein pilvistä  
Melkein pilvistä  
   Tuuli: Pohjoiskoillinen 5.7 m/s
Tuuli: Pohjoiskoillinen 5.7 m/s
Lämpötila: -1°C
Tuulen hyytävyys: -7°C
Kastepiste: -7°C
Kosteus: 64%
Ilmanpaine: 1006 hPa
Pilvisyys: Melkein pilvistä
Näkyvyys: Enemmän kuin 10 km
Pilvitiedot: Melkein pilvistä 975 m
EFHK 191250Z 03011KT 9999 BKN032 M01/M07 Q1006 NOSIG

Alkuperäinen skripti  Saratoga-weather.org Sovitettu myös templatelle  Weerstation Leuven

Laitteet joita käytämme:

Sääasema
Davis VP2

Sääasemaohjelma
Cumulus

Sääaseman palvelin
HP ProBook 6460b

Palveluntarjoaja
Radicenter

Davis VP2

Cumulus

HP ProBook 6460b

Radicenter




Flag Counter Cumulus Top Sites